Arch Rock, Pennsylvania
Current Conditions -  °F | °C
As of 5:53 AM on Saturday 20 Dec 2014 (Local Time) from KSEG Reporting Station
Overcast Overcast  
Wind Chill: 24°   Ceiling: 3000
Heat Index: 30°   Visibility: 10mi
Dew Point: 20°   Wind: 6mph
Humidity: 66%   Direction: 310°NW
Pressure: 30.27"   Gusts: NA
Location:  40.5853°N, 77.3611°W
Report Text: KSEG 201053Z AUTO 31005KT 10SM OVC030 M01/M07 A3027 RMK AO2 SLP254 T10111067
Loading
Personal Weather Stations






























Interactive Weather Map New forecast layout! Learn more

10-Day Weather Forecast

Advertisements
Track Severe Weather on mobile